sensor_id;sensor_type;location;lat;lon;timestamp;pressure;altitude;pressure_sealevel;temperature;humidity
36664;BME280;53333;51.976;20.144;2023-02-19T00:01:23;99699.56;;;4.61;60.54
36664;BME280;53333;51.976;20.144;2023-02-19T00:03:57;99701.41;;;4.59;60.57
36664;BME280;53333;51.976;20.144;2023-02-19T00:06:34;99710.34;;;4.54;60.50
36664;BME280;53333;51.976;20.144;2023-02-19T00:09:08;99702.53;;;4.50;60.52
36664;BME280;53333;51.976;20.144;2023-02-19T00:11:41;99707.97;;;4.47;60.57
36664;BME280;53333;51.976;20.144;2023-02-19T00:14:15;99705.44;;;4.42;60.60
36664;BME280;53333;51.976;20.144;2023-02-19T00:16:51;99698.59;;;4.35;60.84
36664;BME280;53333;51.976;20.144;2023-02-19T00:19:24;99708.41;;;4.31;60.80
36664;BME280;53333;51.976;20.144;2023-02-19T00:21:58;99698.81;;;4.27;60.88
36664;BME280;53333;51.976;20.144;2023-02-19T00:24:31;99694.47;;;4.26;60.94
36664;BME280;53333;51.976;20.144;2023-02-19T00:27:04;99699.75;;;4.26;60.86
36664;BME280;53333;51.976;20.144;2023-02-19T00:29:39;99697.06;;;4.28;60.85
36664;BME280;53333;51.976;20.144;2023-02-19T00:32:14;99700.56;;;4.28;60.86
36664;BME280;53333;51.976;20.144;2023-02-19T00:34:50;99697.97;;;4.27;60.80
36664;BME280;53333;51.976;20.144;2023-02-19T00:37:24;99698.88;;;4.26;60.77
36664;BME280;53333;51.976;20.144;2023-02-19T00:39:57;99690.97;;;4.24;60.79
36664;BME280;53333;51.976;20.144;2023-02-19T00:42:32;99688.28;;;4.26;60.90
36664;BME280;53333;51.976;20.144;2023-02-19T00:45:07;99689.19;;;4.26;60.78
36664;BME280;53333;51.976;20.144;2023-02-19T00:47:41;99679.41;;;4.28;60.80
36664;BME280;53333;51.976;20.144;2023-02-19T00:50:17;99691.75;;;4.29;60.71
36664;BME280;53333;51.976;20.144;2023-02-19T00:52:51;99691.75;;;4.29;60.66
36664;BME280;53333;51.976;20.144;2023-02-19T00:55:24;99687.34;;;4.28;60.71
36664;BME280;53333;51.976;20.144;2023-02-19T00:57:57;99682.19;;;4.24;60.77
36664;BME280;53333;51.976;20.144;2023-02-19T01:00:33;99673.50;;;4.20;60.77
36664;BME280;53333;51.976;20.144;2023-02-19T01:03:05;99674.50;;;4.16;60.79
36664;BME280;53333;51.976;20.144;2023-02-19T01:05:38;99668.41;;;4.14;60.88
36664;BME280;53333;51.976;20.144;2023-02-19T01:08:13;99661.50;;;4.08;60.86
36664;BME280;53333;51.976;20.144;2023-02-19T01:10:50;99666.91;;;4.04;60.91
36664;BME280;53333;51.976;20.144;2023-02-19T01:13:23;99666.19;;;3.98;60.87
36664;BME280;53333;51.976;20.144;2023-02-19T01:16:03;99665.47;;;3.93;60.88
36664;BME280;53333;51.976;20.144;2023-02-19T01:18:37;99672.69;;;3.88;61.05
36664;BME280;53333;51.976;20.144;2023-02-19T01:21:15;99675.41;;;3.85;61.10
36664;BME280;53333;51.976;20.144;2023-02-19T01:23:51;99672.81;;;3.84;61.03
36664;BME280;53333;51.976;20.144;2023-02-19T01:26:27;99676.38;;;3.81;61.10
36664;BME280;53333;51.976;20.144;2023-02-19T01:29:02;99675.53;;;3.80;61.20
36664;BME280;53333;51.976;20.144;2023-02-19T01:31:35;99677.38;;;3.78;61.22
36664;BME280;53333;51.976;20.144;2023-02-19T01:34:09;99672.97;;;3.77;61.18
36664;BME280;53333;51.976;20.144;2023-02-19T01:36:46;99679.16;;;3.76;61.32
36664;BME280;53333;51.976;20.144;2023-02-19T01:39:20;99676.47;;;3.78;61.22
36664;BME280;53333;51.976;20.144;2023-02-19T01:41:53;99678.22;;;3.79;61.15
36664;BME280;53333;51.976;20.144;2023-02-19T01:47:20;99676.56;;;3.75;61.16
36664;BME280;53333;51.976;20.144;2023-02-19T01:49:56;99681.00;;;3.74;61.17
36664;BME280;53333;51.976;20.144;2023-02-19T01:52:30;99681.03;;;3.73;61.25
36664;BME280;53333;51.976;20.144;2023-02-19T01:55:05;99681.94;;;3.72;61.35
36664;BME280;53333;51.976;20.144;2023-02-19T01:57:40;99679.25;;;3.73;61.19
36664;BME280;53333;51.976;20.144;2023-02-19T02:00:15;99681.06;;;3.71;61.33
36664;BME280;53333;51.976;20.144;2023-02-19T02:02:50;99667.88;;;3.71;61.26
36664;BME280;53333;51.976;20.144;2023-02-19T02:05:32;99679.28;;;3.72;61.24
36664;BME280;53333;51.976;20.144;2023-02-19T02:08:08;99672.34;;;3.69;61.20
36664;BME280;53333;51.976;20.144;2023-02-19T02:11:00;99680.25;;;3.69;61.20
36664;BME280;53333;51.976;20.144;2023-02-19T02:13:34;99681.06;;;3.71;61.32
36664;BME280;53333;51.976;20.144;2023-02-19T02:16:13;99682.81;;;3.72;61.32
36664;BME280;53333;51.976;20.144;2023-02-19T02:19:01;99688.00;;;3.75;61.23
36664;BME280;53333;51.976;20.144;2023-02-19T02:21:48;99683.50;;;3.79;61.13
36664;BME280;53333;51.976;20.144;2023-02-19T02:24:32;99685.16;;;3.83;61.11
36664;BME280;53333;51.976;20.144;2023-02-19T02:27:17;99673.63;;;3.86;61.11
36664;BME280;53333;51.976;20.144;2023-02-19T02:30:19;99662.97;;;3.89;61.05
36664;BME280;53333;51.976;20.144;2023-02-19T02:32:57;99667.31;;;3.91;61.11
36664;BME280;53333;51.976;20.144;2023-02-19T02:35:35;99667.25;;;3.93;61.08
36664;BME280;53333;51.976;20.144;2023-02-19T02:38:11;99663.72;;;3.92;60.97
36664;BME280;53333;51.976;20.144;2023-02-19T02:40:46;99654.91;;;3.93;61.02
36664;BME280;53333;51.976;20.144;2023-02-19T02:43:19;99651.41;;;3.93;61.03
36664;BME280;53333;51.976;20.144;2023-02-19T02:45:56;99661.03;;;3.94;61.02
36664;BME280;53333;51.976;20.144;2023-02-19T02:48:37;99661.84;;;3.97;60.94
36664;BME280;53333;51.976;20.144;2023-02-19T02:51:13;99650.44;;;3.95;61.04
36664;BME280;53333;51.976;20.144;2023-02-19T02:54:04;99654.00;;;3.94;61.06
36664;BME280;53333;51.976;20.144;2023-02-19T02:57:00;99654.91;;;3.93;61.08
36664;BME280;53333;51.976;20.144;2023-02-19T02:59:39;99652.25;;;3.93;61.12
36664;BME280;53333;51.976;20.144;2023-02-19T03:02:15;99654.03;;;3.93;61.13
36664;BME280;53333;51.976;20.144;2023-02-19T03:04:51;99661.94;;;3.94;61.03
36664;BME280;53333;51.976;20.144;2023-02-19T03:07:46;99652.25;;;3.93;61.11
36664;BME280;53333;51.976;20.144;2023-02-19T03:10:24;99656.66;;;3.94;61.00
36664;BME280;53333;51.976;20.144;2023-02-19T03:12:58;99662.69;;;3.98;61.13
36664;BME280;53333;51.976;20.144;2023-02-19T03:15:54;99660.88;;;4.00;61.04
36664;BME280;53333;51.976;20.144;2023-02-19T03:18:49;99655.59;;;4.00;61.08
36664;BME280;53333;51.976;20.144;2023-02-19T03:21:42;99659.91;;;4.03;61.06
36664;BME280;53333;51.976;20.144;2023-02-19T03:24:17;99654.63;;;4.03;61.06
36664;BME280;53333;51.976;20.144;2023-02-19T03:27:10;99650.22;;;4.03;60.93
36664;BME280;53333;51.976;20.144;2023-02-19T03:29:48;99651.13;;;4.02;61.02
36664;BME280;53333;51.976;20.144;2023-02-19T03:32:24;99647.59;;;4.02;61.01
36664;BME280;53333;51.976;20.144;2023-02-19T03:35:02;99643.25;;;4.00;61.08
36664;BME280;53333;51.976;20.144;2023-02-19T03:37:38;99635.31;;;4.00;61.01
36664;BME280;53333;51.976;20.144;2023-02-19T03:40:13;99634.41;;;4.02;61.07
36664;BME280;53333;51.976;20.144;2023-02-19T03:42:53;99636.13;;;4.03;61.13
36664;BME280;53333;51.976;20.144;2023-02-19T03:45:35;99634.41;;;4.02;61.06
36664;BME280;53333;51.976;20.144;2023-02-19T03:48:17;99632.69;;;4.00;61.00
36664;BME280;53333;51.976;20.144;2023-02-19T03:51:01;99623.06;;;3.98;61.06
36664;BME280;53333;51.976;20.144;2023-02-19T03:53:41;99624.00;;;3.95;61.04
36664;BME280;53333;51.976;20.144;2023-02-19T03:56:18;99619.66;;;3.94;61.20
36664;BME280;53333;51.976;20.144;2023-02-19T03:58:55;99615.31;;;3.92;61.20
36664;BME280;53333;51.976;20.144;2023-02-19T04:01:30;99623.28;;;3.90;61.16
36664;BME280;53333;51.976;20.144;2023-02-19T04:04:05;99610.97;;;3.89;61.24
36664;BME280;53333;51.976;20.144;2023-02-19T04:06:45;99621.53;;;3.89;61.21
36664;BME280;53333;51.976;20.144;2023-02-19T04:09:24;99619.81;;;3.88;61.16
36664;BME280;53333;51.976;20.144;2023-02-19T04:12:06;99611.09;;;3.86;61.22
36664;BME280;53333;51.976;20.144;2023-02-19T04:14:43;99613.72;;;3.86;61.28
36664;BME280;53333;51.976;20.144;2023-02-19T04:17:20;99614.63;;;3.85;61.29
36664;BME280;53333;51.976;20.144;2023-02-19T04:19:55;99613.81;;;3.83;61.16
36664;BME280;53333;51.976;20.144;2023-02-19T04:22:33;99612.03;;;3.84;61.18
36664;BME280;53333;51.976;20.144;2023-02-19T04:25:09;99620.84;;;3.82;61.30
36664;BME280;53333;51.976;20.144;2023-02-19T04:27:47;99615.56;;;3.82;61.22
36664;BME280;53333;51.976;20.144;2023-02-19T04:30:21;99618.25;;;3.81;61.15
36664;BME280;53333;51.976;20.144;2023-02-19T04:32:54;99611.28;;;3.80;61.43
36664;BME280;53333;51.976;20.144;2023-02-19T04:35:28;99614.75;;;3.80;61.33
36664;BME280;53333;51.976;20.144;2023-02-19T04:38:05;99606.88;;;3.79;61.18
36664;BME280;53333;51.976;20.144;2023-02-19T04:40:38;99615.72;;;3.78;61.27
36664;BME280;53333;51.976;20.144;2023-02-19T04:43:14;99614.91;;;3.76;61.36
36664;BME280;53333;51.976;20.144;2023-02-19T04:45:46;99622.81;;;3.76;61.38
36664;BME280;53333;51.976;20.144;2023-02-19T04:48:19;99616.69;;;3.75;61.35
36664;BME280;53333;51.976;20.144;2023-02-19T04:50:53;99610.50;;;3.75;61.28
36664;BME280;53333;51.976;20.144;2023-02-19T04:53:30;99605.31;;;3.72;61.36
36664;BME280;53333;51.976;20.144;2023-02-19T04:56:06;99608.06;;;3.69;61.40
36664;BME280;53333;51.976;20.144;2023-02-19T04:58:41;99609.06;;;3.64;61.34
36664;BME280;53333;51.976;20.144;2023-02-19T05:01:15;99605.63;;;3.62;61.40
36664;BME280;53333;51.976;20.144;2023-02-19T05:03:47;99598.59;;;3.61;61.36
36664;BME280;53333;51.976;20.144;2023-02-19T05:06:20;99595.03;;;3.62;61.39
36664;BME280;53333;51.976;20.144;2023-02-19T05:08:55;99585.38;;;3.61;61.37
36664;BME280;53333;51.976;20.144;2023-02-19T05:11:33;99581.88;;;3.61;61.41
36664;BME280;53333;51.976;20.144;2023-02-19T05:14:06;99581.00;;;3.60;61.40
36664;BME280;53333;51.976;20.144;2023-02-19T05:16:38;99577.50;;;3.60;61.47
36664;BME280;53333;51.976;20.144;2023-02-19T05:19:11;99563.47;;;3.58;61.50
36664;BME280;53333;51.976;20.144;2023-02-19T05:21:44;99562.59;;;3.57;61.46
36664;BME280;53333;51.976;20.144;2023-02-19T05:24:22;99559.88;;;3.60;61.38
36664;BME280;53333;51.976;20.144;2023-02-19T05:26:55;99562.50;;;3.60;61.40
36664;BME280;53333;51.976;20.144;2023-02-19T05:29:29;99569.63;;;3.58;61.41
36664;BME280;53333;51.976;20.144;2023-02-19T05:32:02;99567.06;;;3.55;61.53
36664;BME280;53333;51.976;20.144;2023-02-19T05:34:35;99563.63;;;3.53;61.40
36664;BME280;53333;51.976;20.144;2023-02-19T05:37:08;99557.47;;;3.53;61.49
36664;BME280;53333;51.976;20.144;2023-02-19T05:39:43;99557.53;;;3.51;61.51
36664;BME280;53333;51.976;20.144;2023-02-19T05:42:17;99566.34;;;3.50;61.50
36664;BME280;53333;51.976;20.144;2023-02-19T05:44:50;99569.88;;;3.49;61.44
36664;BME280;53333;51.976;20.144;2023-02-19T05:47:23;99564.66;;;3.48;61.52
36664;BME280;53333;51.976;20.144;2023-02-19T05:49:56;99576.09;;;3.48;61.54
36664;BME280;53333;51.976;20.144;2023-02-19T05:52:32;99572.47;;;3.51;61.44
36664;BME280;53333;51.976;20.144;2023-02-19T05:55:07;99572.53;;;3.49;61.46
36664;BME280;53333;51.976;20.144;2023-02-19T05:57:40;99578.75;;;3.48;61.55
36664;BME280;53333;51.976;20.144;2023-02-19T06:00:17;99582.28;;;3.47;61.45
36664;BME280;53333;51.976;20.144;2023-02-19T06:02:54;99596.34;;;3.48;61.46
36664;BME280;53333;51.976;20.144;2023-02-19T06:05:27;99595.47;;;3.47;61.57
36664;BME280;53333;51.976;20.144;2023-02-19T06:08:02;99601.63;;;3.48;61.54
36664;BME280;53333;51.976;20.144;2023-02-19T06:10:37;99597.25;;;3.47;61.57
36664;BME280;53333;51.976;20.144;2023-02-19T06:13:11;99596.38;;;3.46;61.52
36664;BME280;53333;51.976;20.144;2023-02-19T06:15:46;99598.16;;;3.45;61.64
36664;BME280;53333;51.976;20.144;2023-02-19T06:18:20;99590.25;;;3.45;61.55
36664;BME280;53333;51.976;20.144;2023-02-19T06:20:59;99581.34;;;3.50;61.48
36664;BME280;53333;51.976;20.144;2023-02-19T06:23:33;99576.81;;;3.53;61.32
36664;BME280;53333;51.976;20.144;2023-02-19T06:26:08;99579.38;;;3.56;61.35
36664;BME280;53333;51.976;20.144;2023-02-19T06:28:46;99566.84;;;3.63;61.28
36664;BME280;53333;51.976;20.144;2023-02-19T06:31:20;99579.84;;;3.71;61.22
36664;BME280;53333;51.976;20.144;2023-02-19T06:33:53;99579.75;;;3.74;61.21
36664;BME280;53333;51.976;20.144;2023-02-19T06:36:26;99580.59;;;3.74;61.28
36664;BME280;53333;51.976;20.144;2023-02-19T06:38:59;99577.06;;;3.75;61.20
36664;BME280;53333;51.976;20.144;2023-02-19T06:41:35;99586.69;;;3.76;61.22
36664;BME280;53333;51.976;20.144;2023-02-19T06:44:10;99594.53;;;3.79;61.40
36664;BME280;53333;51.976;20.144;2023-02-19T06:46:43;99606.78;;;3.82;61.27
36664;BME280;53333;51.976;20.144;2023-02-19T06:49:16;99612.94;;;3.82;61.25
36664;BME280;53333;51.976;20.144;2023-02-19T06:51:49;99604.16;;;3.82;61.38
36664;BME280;53333;51.976;20.144;2023-02-19T06:54:22;99605.06;;;3.81;61.30
36664;BME280;53333;51.976;20.144;2023-02-19T06:56:57;99605.97;;;3.80;61.36
36664;BME280;53333;51.976;20.144;2023-02-19T06:59:31;99608.66;;;3.78;61.42
36664;BME280;53333;51.976;20.144;2023-02-19T07:02:08;99610.47;;;3.76;61.35
36664;BME280;53333;51.976;20.144;2023-02-19T07:04:42;99621.94;;;3.77;61.32
36664;BME280;53333;51.976;20.144;2023-02-19T07:07:14;99611.34;;;3.77;61.46
36664;BME280;53333;51.976;20.144;2023-02-19T07:09:47;99614.75;;;3.80;61.38
36664;BME280;53333;51.976;20.144;2023-02-19T07:12:24;99613.88;;;3.81;61.43
36664;BME280;53333;51.976;20.144;2023-02-19T07:14:57;99610.34;;;3.81;61.35
36664;BME280;53333;51.976;20.144;2023-02-19T07:17:32;99611.19;;;3.83;61.42
36664;BME280;53333;51.976;20.144;2023-02-19T07:20:05;99616.38;;;3.86;61.30
36664;BME280;53333;51.976;20.144;2023-02-19T07:22:38;99618.94;;;3.88;61.41
36664;BME280;53333;51.976;20.144;2023-02-19T07:25:13;99621.50;;;3.91;61.31
36664;BME280;53333;51.976;20.144;2023-02-19T07:27:47;99615.22;;;3.95;61.29
36664;BME280;53333;51.976;20.144;2023-02-19T07:30:22;99626.56;;;3.98;61.30
36664;BME280;53333;51.976;20.144;2023-02-19T07:32:55;99626.47;;;4.02;61.19
36664;BME280;53333;51.976;20.144;2023-02-19T07:35:28;99626.47;;;4.02;61.42
36664;BME280;53333;51.976;20.144;2023-02-19T07:38:04;99622.91;;;4.03;61.28
36664;BME280;53333;51.976;20.144;2023-02-19T07:40:38;99625.44;;;4.07;61.29
36664;BME280;53333;51.976;20.144;2023-02-19T07:43:16;99624.34;;;4.13;61.26
36664;BME280;53333;51.976;20.144;2023-02-19T07:45:51;99620.63;;;4.20;61.09
36664;BME280;53333;51.976;20.144;2023-02-19T07:48:26;99623.94;;;4.27;61.15
36664;BME280;53333;51.976;20.144;2023-02-19T07:50:59;99625.59;;;4.31;61.07
36664;BME280;53333;51.976;20.144;2023-02-19T07:53:33;99622.81;;;4.34;60.92
36664;BME280;53333;51.976;20.144;2023-02-19T07:56:06;99619.16;;;4.38;60.94
36664;BME280;53333;51.976;20.144;2023-02-19T07:58:41;99626.97;;;4.43;60.98
36664;BME280;53333;51.976;20.144;2023-02-19T08:01:16;99626.78;;;4.49;61.00
36664;BME280;53333;51.976;20.144;2023-02-19T08:03:50;99628.59;;;4.47;60.89
36664;BME280;53333;51.976;20.144;2023-02-19T08:06:22;99631.25;;;4.47;60.93
36664;BME280;53333;51.976;20.144;2023-02-19T08:11:53;99636.28;;;4.54;61.05
36664;BME280;53333;51.976;20.144;2023-02-19T08:14:44;99642.31;;;4.60;60.82
36664;BME280;53333;51.976;20.144;2023-02-19T08:17:18;99644.72;;;4.66;60.96
36664;BME280;53333;51.976;20.144;2023-02-19T08:19:54;99637.56;;;4.69;60.81
36664;BME280;53333;51.976;20.144;2023-02-19T08:22:27;99644.47;;;4.73;60.72
36664;BME280;53333;51.976;20.144;2023-02-19T08:25:00;99644.38;;;4.77;60.77
36664;BME280;53333;51.976;20.144;2023-02-19T08:27:33;99637.09;;;4.83;60.72
36664;BME280;53333;51.976;20.144;2023-02-19T08:30:10;99649.06;;;4.95;60.66
36664;BME280;53333;51.976;20.144;2023-02-19T08:32:43;99650.31;;;5.10;60.53
36664;BME280;53333;51.976;20.144;2023-02-19T08:35:19;99639.41;;;5.19;60.43
36664;BME280;53333;51.976;20.144;2023-02-19T08:37:53;99640.06;;;5.26;60.47
36664;BME280;53333;51.976;20.144;2023-02-19T08:40:29;99640.69;;;5.33;60.39
36664;BME280;53333;51.976;20.144;2023-02-19T08:43:02;99646.38;;;5.47;60.28
36664;BME280;53333;51.976;20.144;2023-02-19T08:45:42;99648.63;;;5.58;60.14
36664;BME280;53333;51.976;20.144;2023-02-19T08:48:16;99642.00;;;5.71;60.21
36664;BME280;53333;51.976;20.144;2023-02-19T08:50:52;99646.97;;;5.79;60.04
36664;BME280;53333;51.976;20.144;2023-02-19T08:53:25;99647.69;;;5.84;60.14
36664;BME280;53333;51.976;20.144;2023-02-19T08:56:03;99651.25;;;5.83;59.95
36664;BME280;53333;51.976;20.144;2023-02-19T08:58:36;99646.81;;;5.83;60.22
36664;BME280;53333;51.976;20.144;2023-02-19T09:01:10;99639.38;;;5.93;59.97
36664;BME280;53333;51.976;20.144;2023-02-19T09:03:46;99637.91;;;6.10;60.02
36664;BME280;53333;51.976;20.144;2023-02-19T09:06:19;99643.09;;;6.35;59.66
36664;BME280;53333;51.976;20.144;2023-02-19T09:08:52;99635.41;;;6.51;59.57
36664;BME280;53333;51.976;20.144;2023-02-19T09:11:26;99629.84;;;6.79;59.23
36664;BME280;53333;51.976;20.144;2023-02-19T09:14:00;99640.56;;;6.98;59.19
36664;BME280;53333;51.976;20.144;2023-02-19T09:16:37;99645.03;;;7.39;58.67
36664;BME280;53333;51.976;20.144;2023-02-19T09:19:10;99630.00;;;7.58;58.55
36664;BME280;53333;51.976;20.144;2023-02-19T09:21:49;99634.38;;;7.78;58.47
36664;BME280;53333;51.976;20.144;2023-02-19T09:24:22;99641.53;;;8.35;57.86
36664;BME280;53333;51.976;20.144;2023-02-19T09:26:56;99641.63;;;8.89;57.43
36664;BME280;53333;51.976;20.144;2023-02-19T09:29:28;99639.28;;;9.00;57.45
36664;BME280;53333;51.976;20.144;2023-02-19T09:32:03;99648.97;;;9.01;57.56
36664;BME280;53333;51.976;20.144;2023-02-19T09:34:36;99636.44;;;9.03;57.77
36664;BME280;53333;51.976;20.144;2023-02-19T09:37:12;99638.81;;;8.92;57.85
36664;BME280;53333;51.976;20.144;2023-02-19T09:39:48;99640.47;;;8.76;58.26
36664;BME280;53333;51.976;20.144;2023-02-19T09:42:24;99652.06;;;8.57;58.36
36664;BME280;53333;51.976;20.144;2023-02-19T09:45:03;99645.75;;;8.39;58.70
36664;BME280;53333;51.976;20.144;2023-02-19T09:47:37;99658.84;;;8.25;58.92
36664;BME280;53333;51.976;20.144;2023-02-19T09:50:11;99656.94;;;8.09;59.02
36664;BME280;53333;51.976;20.144;2023-02-19T09:52:47;99662.03;;;8.14;59.10
36664;BME280;53333;51.976;20.144;2023-02-19T09:55:28;99657.91;;;9.00;57.70
36664;BME280;53333;51.976;20.144;2023-02-19T09:58:05;99655.50;;;9.48;57.64
36664;BME280;53333;51.976;20.144;2023-02-19T10:00:39;99658.44;;;9.59;57.78
36664;BME280;53333;51.976;20.144;2023-02-19T10:03:16;99660.88;;;9.64;57.61
36664;BME280;53333;51.976;20.144;2023-02-19T10:05:54;99654.28;;;9.54;58.01
36664;BME280;53333;51.976;20.144;2023-02-19T10:08:29;99668.59;;;9.35;58.06
36664;BME280;53333;51.976;20.144;2023-02-19T10:11:03;99661.59;;;9.15;58.22
36664;BME280;53333;51.976;20.144;2023-02-19T10:13:38;99666.13;;;8.96;58.70
36664;BME280;53333;51.976;20.144;2023-02-19T10:16:23;99676.13;;;8.73;58.83
36664;BME280;53333;51.976;20.144;2023-02-19T10:18:59;99673.97;;;8.62;58.86
36664;BME280;53333;51.976;20.144;2023-02-19T10:21:35;99674.41;;;8.53;59.18
36664;BME280;53333;51.976;20.144;2023-02-19T10:24:15;99678.72;;;8.36;59.29
36664;BME280;53333;51.976;20.144;2023-02-19T10:26:53;99685.78;;;8.18;59.44
36664;BME280;53333;51.976;20.144;2023-02-19T10:29:27;99682.28;;;7.97;59.61
36664;BME280;53333;51.976;20.144;2023-02-19T10:32:11;99691.31;;;7.74;59.80
36664;BME280;53333;51.976;20.144;2023-02-19T10:34:45;99702.75;;;7.56;59.94
36664;BME280;53333;51.976;20.144;2023-02-19T10:37:18;99696.25;;;7.42;60.11
36664;BME280;53333;51.976;20.144;2023-02-19T10:39:51;99703.56;;;7.37;60.10
36664;BME280;53333;51.976;20.144;2023-02-19T10:42:24;99699.34;;;7.32;60.11
36664;BME280;53333;51.976;20.144;2023-02-19T10:44:58;99697.00;;;7.24;60.18
36664;BME280;53333;51.976;20.144;2023-02-19T10:47:35;99695.31;;;7.23;60.12
36664;BME280;53333;51.976;20.144;2023-02-19T10:50:24;99698.63;;;7.28;60.11
36664;BME280;53333;51.976;20.144;2023-02-19T10:52:58;99702.94;;;7.51;59.75
36664;BME280;53333;51.976;20.144;2023-02-19T10:55:32;99697.44;;;7.56;59.73
36664;BME280;53333;51.976;20.144;2023-02-19T10:58:21;99701.75;;;7.58;59.68
36664;BME280;53333;51.976;20.144;2023-02-19T11:01:08;99704.41;;;7.58;59.59
36664;BME280;53333;51.976;20.144;2023-02-19T11:03:51;99709.53;;;7.63;59.64
36664;BME280;53333;51.976;20.144;2023-02-19T11:06:30;99703.06;;;7.69;59.53
36664;BME280;53333;51.976;20.144;2023-02-19T11:09:05;99698.94;;;7.82;59.56
36664;BME280;53333;51.976;20.144;2023-02-19T11:11:49;99709.34;;;8.26;59.00
36664;BME280;53333;51.976;20.144;2023-02-19T11:14:24;99705.75;;;9.38;57.76
36664;BME280;53333;51.976;20.144;2023-02-19T11:16:57;99701.97;;;9.60;57.97
36664;BME280;53333;51.976;20.144;2023-02-19T11:19:33;99711.16;;;9.72;57.53
36664;BME280;53333;51.976;20.144;2023-02-19T11:22:19;99716.03;;;9.97;57.37
36664;BME280;53333;51.976;20.144;2023-02-19T11:25:02;99713.94;;;10.37;56.80
36664;BME280;53333;51.976;20.144;2023-02-19T11:27:36;99720.13;;;10.38;57.09
36664;BME280;53333;51.976;20.144;2023-02-19T11:30:37;99717.66;;;10.66;56.74
36664;BME280;53333;51.976;20.144;2023-02-19T11:33:21;99727.00;;;10.58;57.25
36664;BME280;53333;51.976;20.144;2023-02-19T11:38:44;99729.88;;;10.21;57.63
36664;BME280;53333;51.976;20.144;2023-02-19T11:41:20;99727.97;;;9.90;58.02
36664;BME280;53333;51.976;20.144;2023-02-19T11:44:00;99727.78;;;9.59;58.29
36664;BME280;53333;51.976;20.144;2023-02-19T11:46:40;99725.72;;;9.30;58.67
36664;BME280;53333;51.976;20.144;2023-02-19T11:49:20;99731.91;;;9.30;58.72
36664;BME280;53333;51.976;20.144;2023-02-19T11:52:01;99729.19;;;9.49;58.69
36664;BME280;53333;51.976;20.144;2023-02-19T11:57:42;99734.03;;;9.41;58.74
36664;BME280;53333;51.976;20.144;2023-02-19T12:00:18;99730.53;;;9.40;58.67
36664;BME280;53333;51.976;20.144;2023-02-19T12:03:00;99735.38;;;9.67;58.33
36664;BME280;53333;51.976;20.144;2023-02-19T12:05:39;99739.16;;;10.14;57.79
36664;BME280;53333;51.976;20.144;2023-02-19T12:11:18;99741.66;;;10.17;57.73
36664;BME280;53333;51.976;20.144;2023-02-19T12:14:11;99754.72;;;10.06;57.94
36664;BME280;53333;51.976;20.144;2023-02-19T12:16:46;99756.53;;;11.34;56.32
36664;BME280;53333;51.976;20.144;2023-02-19T12:22:17;99745.34;;;13.02;55.17
36664;BME280;53333;51.976;20.144;2023-02-19T12:27:57;99758.75;;;13.96;54.14
36664;BME280;53333;51.976;20.144;2023-02-19T12:30:54;99759.91;;;14.82;53.25
36664;BME280;53333;51.976;20.144;2023-02-19T12:33:40;99761.31;;;15.96;51.98
36664;BME280;53333;51.976;20.144;2023-02-19T12:36:26;99761.69;;;16.03;52.67
36664;BME280;53333;51.976;20.144;2023-02-19T12:39:02;99772.41;;;16.95;51.67
36664;BME280;53333;51.976;20.144;2023-02-19T12:41:46;99771.53;;;18.55;50.03
36664;BME280;53333;51.976;20.144;2023-02-19T12:44:30;99772.94;;;19.50;49.31
36664;BME280;53333;51.976;20.144;2023-02-19T12:47:14;99769.88;;;19.04;50.62
36664;BME280;53333;51.976;20.144;2023-02-19T12:49:56;99771.88;;;18.09;51.83
36664;BME280;53333;51.976;20.144;2023-02-19T12:52:34;99787.44;;;17.09;53.30
36664;BME280;53333;51.976;20.144;2023-02-19T12:55:16;99785.69;;;17.30;52.76
36664;BME280;53333;51.976;20.144;2023-02-19T12:58:08;99783.13;;;18.14;52.12
36664;BME280;53333;51.976;20.144;2023-02-19T13:00:43;99779.53;;;18.66;51.55
36664;BME280;53333;51.976;20.144;2023-02-19T13:03:22;99785.47;;;19.41;50.78
36664;BME280;53333;51.976;20.144;2023-02-19T13:06:00;99776.81;;;19.86;50.62
36664;BME280;53333;51.976;20.144;2023-02-19T13:08:49;99780.75;;;20.21;50.35
36664;BME280;53333;51.976;20.144;2023-02-19T13:11:38;99783.06;;;20.63;49.99
36664;BME280;53333;51.976;20.144;2023-02-19T13:14:18;99792.34;;;20.71;50.41
36664;BME280;53333;51.976;20.144;2023-02-19T13:16:54;99789.88;;;20.77;50.25
36664;BME280;53333;51.976;20.144;2023-02-19T13:19:32;99793.38;;;20.50;50.63
36664;BME280;53333;51.976;20.144;2023-02-19T13:25:12;99792.59;;;18.09;53.77
36664;BME280;53333;51.976;20.144;2023-02-19T13:27:50;99808.66;;;17.02;54.75
36664;BME280;53333;51.976;20.144;2023-02-19T13:30:32;99806.97;;;15.97;56.06
36664;BME280;53333;51.976;20.144;2023-02-19T13:33:29;99814.78;;;15.04;57.14
36664;BME280;53333;51.976;20.144;2023-02-19T13:36:09;99814.22;;;14.36;57.28
36664;BME280;53333;51.976;20.144;2023-02-19T13:38:44;99818.69;;;14.23;57.34
36664;BME280;53333;51.976;20.144;2023-02-19T13:41:20;99808.69;;;14.12;57.54
36664;BME280;53333;51.976;20.144;2023-02-19T13:43:59;99810.84;;;14.45;56.63
36664;BME280;53333;51.976;20.144;2023-02-19T13:46:33;99817.75;;;14.75;55.98
36664;BME280;53333;51.976;20.144;2023-02-19T13:52:00;99823.69;;;16.37;54.50
36664;BME280;53333;51.976;20.144;2023-02-19T13:54:36;99824.94;;;16.32;54.72
36664;BME280;53333;51.976;20.144;2023-02-19T14:00:01;99845.94;;;15.19;55.51
36664;BME280;53333;51.976;20.144;2023-02-19T14:05:55;99854.81;;;12.95;57.96
36664;BME280;53333;51.976;20.144;2023-02-19T14:14:34;99872.03;;;10.25;60.38
36664;BME280;53333;51.976;20.144;2023-02-19T14:19:55;99875.97;;;9.46;60.98
36664;BME280;53333;51.976;20.144;2023-02-19T14:28:30;99878.00;;;9.03;61.23
36664;BME280;53333;51.976;20.144;2023-02-19T14:31:09;99887.72;;;8.85;60.95
36664;BME280;53333;51.976;20.144;2023-02-19T14:33:48;99896.41;;;8.69;61.02
36664;BME280;53333;51.976;20.144;2023-02-19T14:36:25;99891.97;;;8.49;60.86
36664;BME280;53333;51.976;20.144;2023-02-19T14:39:03;99895.53;;;8.28;61.08